sensor_id;sensor_type;location;lat;lon;timestamp;P1;durP1;ratioP1;P2;durP2;ratioP2
76268;SDS011;65088;52.352;4.846;2023-02-11T00:02:04;15.15;;;2.63;;
76268;SDS011;65088;52.352;4.846;2023-02-11T00:04:33;15.35;;;3.20;;
76268;SDS011;65088;52.352;4.846;2023-02-11T00:07:02;6.80;;;2.53;;
76268;SDS011;65088;52.352;4.846;2023-02-11T00:09:31;7.40;;;2.90;;
76268;SDS011;65088;52.352;4.846;2023-02-11T00:12:01;12.88;;;2.70;;
76268;SDS011;65088;52.352;4.846;2023-02-11T00:14:30;11.98;;;2.90;;
76268;SDS011;65088;52.352;4.846;2023-02-11T00:16:59;15.50;;;2.40;;
76268;SDS011;65088;52.352;4.846;2023-02-11T00:19:31;9.35;;;2.47;;
76268;SDS011;65088;52.352;4.846;2023-02-11T00:22:00;12.52;;;3.42;;
76268;SDS011;65088;52.352;4.846;2023-02-11T00:24:30;8.80;;;2.00;;
76268;SDS011;65088;52.352;4.846;2023-02-11T00:26:59;12.27;;;3.65;;
76268;SDS011;65088;52.352;4.846;2023-02-11T00:29:28;7.95;;;2.70;;
76268;SDS011;65088;52.352;4.846;2023-02-11T00:31:58;7.68;;;2.47;;
76268;SDS011;65088;52.352;4.846;2023-02-11T00:34:32;13.90;;;3.15;;
76268;SDS011;65088;52.352;4.846;2023-02-11T00:37:03;8.55;;;2.90;;
76268;SDS011;65088;52.352;4.846;2023-02-11T00:39:32;13.15;;;2.97;;
76268;SDS011;65088;52.352;4.846;2023-02-11T00:42:02;14.10;;;3.45;;
76268;SDS011;65088;52.352;4.846;2023-02-11T00:44:32;13.65;;;3.08;;
76268;SDS011;65088;52.352;4.846;2023-02-11T00:47:01;13.20;;;3.42;;
76268;SDS011;65088;52.352;4.846;2023-02-11T00:49:33;12.20;;;3.88;;
76268;SDS011;65088;52.352;4.846;2023-02-11T00:52:04;10.95;;;3.83;;
76268;SDS011;65088;52.352;4.846;2023-02-11T00:54:34;9.95;;;3.08;;
76268;SDS011;65088;52.352;4.846;2023-02-11T00:57:04;14.82;;;4.20;;
76268;SDS011;65088;52.352;4.846;2023-02-11T00:59:34;16.25;;;4.60;;
76268;SDS011;65088;52.352;4.846;2023-02-11T01:02:04;13.27;;;4.25;;
76268;SDS011;65088;52.352;4.846;2023-02-11T01:04:37;21.00;;;4.25;;
76268;SDS011;65088;52.352;4.846;2023-02-11T01:07:06;11.98;;;3.47;;
76268;SDS011;65088;52.352;4.846;2023-02-11T01:09:36;14.25;;;3.65;;
76268;SDS011;65088;52.352;4.846;2023-02-11T01:12:05;11.85;;;4.57;;
76268;SDS011;65088;52.352;4.846;2023-02-11T01:14:35;17.30;;;4.55;;
76268;SDS011;65088;52.352;4.846;2023-02-11T01:17:05;14.85;;;4.80;;
76268;SDS011;65088;52.352;4.846;2023-02-11T01:19:37;14.82;;;4.90;;
76268;SDS011;65088;52.352;4.846;2023-02-11T01:22:07;13.88;;;4.50;;
76268;SDS011;65088;52.352;4.846;2023-02-11T01:24:36;17.10;;;5.18;;
76268;SDS011;65088;52.352;4.846;2023-02-11T01:27:06;15.02;;;5.85;;
76268;SDS011;65088;52.352;4.846;2023-02-11T01:29:35;17.98;;;6.25;;
76268;SDS011;65088;52.352;4.846;2023-02-11T01:32:05;17.88;;;7.22;;
76268;SDS011;65088;52.352;4.846;2023-02-11T01:34:34;15.57;;;6.78;;
76268;SDS011;65088;52.352;4.846;2023-02-11T01:37:06;20.08;;;6.15;;
76268;SDS011;65088;52.352;4.846;2023-02-11T01:39:35;28.65;;;7.13;;
76268;SDS011;65088;52.352;4.846;2023-02-11T01:42:05;20.63;;;6.70;;
76268;SDS011;65088;52.352;4.846;2023-02-11T01:44:35;18.25;;;5.75;;
76268;SDS011;65088;52.352;4.846;2023-02-11T01:47:06;21.98;;;5.82;;
76268;SDS011;65088;52.352;4.846;2023-02-11T01:49:40;24.98;;;5.70;;
76268;SDS011;65088;52.352;4.846;2023-02-11T01:52:13;17.80;;;5.43;;
76268;SDS011;65088;52.352;4.846;2023-02-11T01:54:47;21.75;;;6.13;;
76268;SDS011;65088;52.352;4.846;2023-02-11T01:57:35;15.23;;;5.28;;
76268;SDS011;65088;52.352;4.846;2023-02-11T02:00:09;13.32;;;4.75;;
76268;SDS011;65088;52.352;4.846;2023-02-11T02:02:46;19.63;;;5.47;;
76268;SDS011;65088;52.352;4.846;2023-02-11T02:05:27;20.83;;;5.65;;
76268;SDS011;65088;52.352;4.846;2023-02-11T02:08:02;18.60;;;5.05;;
76268;SDS011;65088;52.352;4.846;2023-02-11T02:10:36;18.30;;;4.88;;
76268;SDS011;65088;52.352;4.846;2023-02-11T02:13:10;18.63;;;5.38;;
76268;SDS011;65088;52.352;4.846;2023-02-11T02:15:48;15.18;;;4.97;;
76268;SDS011;65088;52.352;4.846;2023-02-11T02:18:26;15.75;;;4.55;;
76268;SDS011;65088;52.352;4.846;2023-02-11T02:21:17;16.80;;;5.63;;
76268;SDS011;65088;52.352;4.846;2023-02-11T02:27:33;19.45;;;5.15;;
76268;SDS011;65088;52.352;4.846;2023-02-11T02:30:20;16.48;;;5.13;;
76268;SDS011;65088;52.352;4.846;2023-02-11T02:33:31;17.60;;;5.63;;
76268;SDS011;65088;52.352;4.846;2023-02-11T02:36:11;22.90;;;5.63;;
76268;SDS011;65088;52.352;4.846;2023-02-11T02:38:46;21.08;;;5.55;;
76268;SDS011;65088;52.352;4.846;2023-02-11T02:41:20;21.15;;;5.45;;
76268;SDS011;65088;52.352;4.846;2023-02-11T02:43:54;18.70;;;6.70;;
76268;SDS011;65088;52.352;4.846;2023-02-11T02:46:24;20.00;;;5.80;;
76268;SDS011;65088;52.352;4.846;2023-02-11T02:48:58;24.35;;;6.78;;
76268;SDS011;65088;52.352;4.846;2023-02-11T02:51:41;22.80;;;6.15;;
76268;SDS011;65088;52.352;4.846;2023-02-11T02:57:37;18.13;;;6.32;;
76268;SDS011;65088;52.352;4.846;2023-02-11T03:00:17;24.55;;;6.93;;
76268;SDS011;65088;52.352;4.846;2023-02-11T03:03:00;23.13;;;7.43;;
76268;SDS011;65088;52.352;4.846;2023-02-11T03:05:46;17.98;;;6.32;;
76268;SDS011;65088;52.352;4.846;2023-02-11T03:08:23;23.00;;;6.60;;
76268;SDS011;65088;52.352;4.846;2023-02-11T03:10:57;28.83;;;7.80;;
76268;SDS011;65088;52.352;4.846;2023-02-11T03:13:29;25.35;;;7.00;;
76268;SDS011;65088;52.352;4.846;2023-02-11T03:16:03;23.55;;;7.03;;
76268;SDS011;65088;52.352;4.846;2023-02-11T03:18:37;26.63;;;7.78;;
76268;SDS011;65088;52.352;4.846;2023-02-11T03:21:12;28.15;;;7.95;;
76268;SDS011;65088;52.352;4.846;2023-02-11T03:23:46;25.10;;;7.78;;
76268;SDS011;65088;52.352;4.846;2023-02-11T03:26:20;25.92;;;7.72;;
76268;SDS011;65088;52.352;4.846;2023-02-11T03:28:54;21.98;;;7.82;;
76268;SDS011;65088;52.352;4.846;2023-02-11T03:31:30;33.20;;;8.93;;
76268;SDS011;65088;52.352;4.846;2023-02-11T03:34:05;26.75;;;8.48;;
76268;SDS011;65088;52.352;4.846;2023-02-11T03:36:42;27.23;;;8.45;;
76268;SDS011;65088;52.352;4.846;2023-02-11T03:39:18;28.42;;;9.85;;
76268;SDS011;65088;52.352;4.846;2023-02-11T03:41:50;22.85;;;7.88;;
76268;SDS011;65088;52.352;4.846;2023-02-11T03:44:24;26.88;;;8.93;;
76268;SDS011;65088;52.352;4.846;2023-02-11T03:46:57;26.67;;;8.13;;
76268;SDS011;65088;52.352;4.846;2023-02-11T03:49:29;25.30;;;8.07;;
76268;SDS011;65088;52.352;4.846;2023-02-11T03:52:02;25.48;;;9.02;;
76268;SDS011;65088;52.352;4.846;2023-02-11T03:54:36;24.45;;;8.70;;
76268;SDS011;65088;52.352;4.846;2023-02-11T03:57:10;25.38;;;8.93;;
76268;SDS011;65088;52.352;4.846;2023-02-11T03:59:49;21.45;;;8.45;;
76268;SDS011;65088;52.352;4.846;2023-02-11T04:02:19;25.13;;;9.40;;
76268;SDS011;65088;52.352;4.846;2023-02-11T04:04:50;32.08;;;10.27;;
76268;SDS011;65088;52.352;4.846;2023-02-11T04:07:21;31.70;;;9.80;;
76268;SDS011;65088;52.352;4.846;2023-02-11T04:09:51;31.10;;;10.15;;
76268;SDS011;65088;52.352;4.846;2023-02-11T04:12:20;24.67;;;9.63;;
76268;SDS011;65088;52.352;4.846;2023-02-11T04:14:49;31.30;;;10.07;;
76268;SDS011;65088;52.352;4.846;2023-02-11T04:17:19;31.98;;;11.45;;
76268;SDS011;65088;52.352;4.846;2023-02-11T04:19:48;25.38;;;9.48;;
76268;SDS011;65088;52.352;4.846;2023-02-11T04:22:23;36.67;;;10.45;;
76268;SDS011;65088;52.352;4.846;2023-02-11T04:27:21;26.70;;;8.95;;
76268;SDS011;65088;52.352;4.846;2023-02-11T04:29:50;27.77;;;10.43;;
76268;SDS011;65088;52.352;4.846;2023-02-11T04:32:19;28.48;;;10.93;;
76268;SDS011;65088;52.352;4.846;2023-02-11T04:34:49;32.78;;;11.20;;
76268;SDS011;65088;52.352;4.846;2023-02-11T04:37:19;28.40;;;10.18;;
76268;SDS011;65088;52.352;4.846;2023-02-11T04:39:51;28.83;;;11.15;;
76268;SDS011;65088;52.352;4.846;2023-02-11T04:42:20;29.33;;;10.88;;
76268;SDS011;65088;52.352;4.846;2023-02-11T04:44:49;26.55;;;10.63;;
76268;SDS011;65088;52.352;4.846;2023-02-11T04:47:19;30.13;;;10.93;;
76268;SDS011;65088;52.352;4.846;2023-02-11T04:49:48;32.60;;;11.40;;
76268;SDS011;65088;52.352;4.846;2023-02-11T04:52:17;32.22;;;10.80;;
76268;SDS011;65088;52.352;4.846;2023-02-11T04:54:46;28.73;;;10.95;;
76268;SDS011;65088;52.352;4.846;2023-02-11T04:57:18;26.55;;;11.00;;
76268;SDS011;65088;52.352;4.846;2023-02-11T04:59:48;25.20;;;11.10;;
76268;SDS011;65088;52.352;4.846;2023-02-11T05:02:17;27.27;;;10.93;;
76268;SDS011;65088;52.352;4.846;2023-02-11T05:04:46;29.35;;;12.65;;
76268;SDS011;65088;52.352;4.846;2023-02-11T05:07:16;40.53;;;12.27;;
76268;SDS011;65088;52.352;4.846;2023-02-11T05:09:45;31.00;;;11.30;;
76268;SDS011;65088;52.352;4.846;2023-02-11T05:12:14;40.22;;;12.63;;
76268;SDS011;65088;52.352;4.846;2023-02-11T05:14:46;26.83;;;10.48;;
76268;SDS011;65088;52.352;4.846;2023-02-11T05:17:15;31.90;;;11.68;;
76268;SDS011;65088;52.352;4.846;2023-02-11T05:19:45;29.25;;;12.38;;
76268;SDS011;65088;52.352;4.846;2023-02-11T05:22:14;24.73;;;9.70;;
76268;SDS011;65088;52.352;4.846;2023-02-11T05:24:43;25.55;;;10.73;;
76268;SDS011;65088;52.352;4.846;2023-02-11T05:27:12;29.55;;;11.90;;
76268;SDS011;65088;52.352;4.846;2023-02-11T05:29:42;29.02;;;10.68;;
76268;SDS011;65088;52.352;4.846;2023-02-11T05:32:14;27.00;;;11.32;;
76268;SDS011;65088;52.352;4.846;2023-02-11T05:34:43;26.90;;;10.75;;
76268;SDS011;65088;52.352;4.846;2023-02-11T05:37:12;33.78;;;12.20;;
76268;SDS011;65088;52.352;4.846;2023-02-11T05:39:42;31.80;;;11.68;;
76268;SDS011;65088;52.352;4.846;2023-02-11T05:42:11;28.88;;;10.85;;
76268;SDS011;65088;52.352;4.846;2023-02-11T05:44:41;33.80;;;11.88;;
76268;SDS011;65088;52.352;4.846;2023-02-11T05:47:10;31.05;;;11.63;;
76268;SDS011;65088;52.352;4.846;2023-02-11T05:49:42;37.35;;;12.38;;
76268;SDS011;65088;52.352;4.846;2023-02-11T05:52:11;27.73;;;11.93;;
76268;SDS011;65088;52.352;4.846;2023-02-11T05:54:41;31.70;;;12.02;;
76268;SDS011;65088;52.352;4.846;2023-02-11T05:57:10;29.10;;;10.95;;
76268;SDS011;65088;52.352;4.846;2023-02-11T05:59:40;32.55;;;11.95;;
76268;SDS011;65088;52.352;4.846;2023-02-11T06:02:16;29.50;;;11.32;;
76268;SDS011;65088;52.352;4.846;2023-02-11T06:04:45;26.75;;;11.55;;
76268;SDS011;65088;52.352;4.846;2023-02-11T06:07:15;27.25;;;11.23;;
76268;SDS011;65088;52.352;4.846;2023-02-11T06:09:45;30.23;;;11.65;;
76268;SDS011;65088;52.352;4.846;2023-02-11T06:12:14;29.27;;;11.18;;
76268;SDS011;65088;52.352;4.846;2023-02-11T06:14:43;28.52;;;12.35;;
76268;SDS011;65088;52.352;4.846;2023-02-11T06:17:12;27.48;;;10.80;;
76268;SDS011;65088;52.352;4.846;2023-02-11T06:19:44;26.20;;;11.52;;
76268;SDS011;65088;52.352;4.846;2023-02-11T06:22:14;37.58;;;12.75;;
76268;SDS011;65088;52.352;4.846;2023-02-11T06:24:43;27.75;;;11.18;;
76268;SDS011;65088;52.352;4.846;2023-02-11T06:27:12;25.00;;;10.30;;
76268;SDS011;65088;52.352;4.846;2023-02-11T06:29:42;26.05;;;10.55;;
76268;SDS011;65088;52.352;4.846;2023-02-11T06:32:12;24.75;;;11.15;;
76268;SDS011;65088;52.352;4.846;2023-02-11T06:34:44;25.45;;;11.23;;
76268;SDS011;65088;52.352;4.846;2023-02-11T06:37:14;27.23;;;11.20;;
76268;SDS011;65088;52.352;4.846;2023-02-11T06:39:43;27.52;;;12.73;;
76268;SDS011;65088;52.352;4.846;2023-02-11T06:42:12;24.90;;;11.02;;
76268;SDS011;65088;52.352;4.846;2023-02-11T06:44:42;28.08;;;12.18;;
76268;SDS011;65088;52.352;4.846;2023-02-11T06:47:11;31.92;;;11.55;;
76268;SDS011;65088;52.352;4.846;2023-02-11T06:49:43;29.08;;;11.40;;
76268;SDS011;65088;52.352;4.846;2023-02-11T06:52:15;30.60;;;11.40;;
76268;SDS011;65088;52.352;4.846;2023-02-11T06:54:45;27.30;;;10.85;;
76268;SDS011;65088;52.352;4.846;2023-02-11T06:57:14;34.53;;;12.45;;
76268;SDS011;65088;52.352;4.846;2023-02-11T06:59:43;26.40;;;11.18;;
76268;SDS011;65088;52.352;4.846;2023-02-11T07:02:12;27.75;;;11.73;;
76268;SDS011;65088;52.352;4.846;2023-02-11T07:04:44;34.53;;;12.98;;
76268;SDS011;65088;52.352;4.846;2023-02-11T07:07:13;30.88;;;10.95;;
76268;SDS011;65088;52.352;4.846;2023-02-11T07:09:43;27.48;;;11.75;;
76268;SDS011;65088;52.352;4.846;2023-02-11T07:12:12;28.75;;;11.88;;
76268;SDS011;65088;52.352;4.846;2023-02-11T07:14:41;29.60;;;11.50;;
76268;SDS011;65088;52.352;4.846;2023-02-11T07:17:11;31.85;;;11.52;;
76268;SDS011;65088;52.352;4.846;2023-02-11T07:19:40;31.90;;;13.63;;
76268;SDS011;65088;52.352;4.846;2023-02-11T07:22:12;28.05;;;11.20;;
76268;SDS011;65088;52.352;4.846;2023-02-11T07:24:41;31.63;;;12.02;;
76268;SDS011;65088;52.352;4.846;2023-02-11T07:27:11;31.17;;;12.10;;
76268;SDS011;65088;52.352;4.846;2023-02-11T07:29:41;29.48;;;11.57;;
76268;SDS011;65088;52.352;4.846;2023-02-11T07:32:11;25.30;;;10.82;;
76268;SDS011;65088;52.352;4.846;2023-02-11T07:34:41;26.38;;;11.13;;
76268;SDS011;65088;52.352;4.846;2023-02-11T07:37:13;26.75;;;10.75;;
76268;SDS011;65088;52.352;4.846;2023-02-11T07:39:42;18.60;;;9.18;;
76268;SDS011;65088;52.352;4.846;2023-02-11T07:42:11;24.60;;;10.60;;
76268;SDS011;65088;52.352;4.846;2023-02-11T07:44:41;25.48;;;10.77;;
76268;SDS011;65088;52.352;4.846;2023-02-11T07:47:10;27.58;;;11.13;;
76268;SDS011;65088;52.352;4.846;2023-02-11T07:49:39;24.77;;;11.55;;
76268;SDS011;65088;52.352;4.846;2023-02-11T07:52:12;22.38;;;10.35;;
76268;SDS011;65088;52.352;4.846;2023-02-11T07:54:41;24.48;;;11.20;;
76268;SDS011;65088;52.352;4.846;2023-02-11T07:57:10;22.73;;;10.80;;
76268;SDS011;65088;52.352;4.846;2023-02-11T07:59:39;25.10;;;10.23;;
76268;SDS011;65088;52.352;4.846;2023-02-11T08:02:09;22.48;;;9.55;;
76268;SDS011;65088;52.352;4.846;2023-02-11T08:04:38;22.42;;;10.20;;
76268;SDS011;65088;52.352;4.846;2023-02-11T08:07:07;29.88;;;10.18;;
76268;SDS011;65088;52.352;4.846;2023-02-11T08:09:39;23.73;;;9.55;;
76268;SDS011;65088;52.352;4.846;2023-02-11T08:12:08;22.02;;;9.43;;
76268;SDS011;65088;52.352;4.846;2023-02-11T08:14:38;29.00;;;11.68;;
76268;SDS011;65088;52.352;4.846;2023-02-11T08:17:07;24.20;;;10.18;;
76268;SDS011;65088;52.352;4.846;2023-02-11T08:19:37;24.35;;;9.20;;
76268;SDS011;65088;52.352;4.846;2023-02-11T08:22:06;19.92;;;9.70;;
76268;SDS011;65088;52.352;4.846;2023-02-11T08:24:36;21.83;;;10.10;;
76268;SDS011;65088;52.352;4.846;2023-02-11T08:27:07;26.15;;;10.93;;
76268;SDS011;65088;52.352;4.846;2023-02-11T08:29:37;22.80;;;9.45;;
76268;SDS011;65088;52.352;4.846;2023-02-11T08:32:06;20.00;;;9.70;;
76268;SDS011;65088;52.352;4.846;2023-02-11T08:34:36;19.25;;;9.10;;
76268;SDS011;65088;52.352;4.846;2023-02-11T08:37:05;21.33;;;10.07;;
76268;SDS011;65088;52.352;4.846;2023-02-11T08:39:34;24.08;;;9.77;;
76268;SDS011;65088;52.352;4.846;2023-02-11T08:42:13;25.88;;;9.80;;
76268;SDS011;65088;52.352;4.846;2023-02-11T08:44:42;23.92;;;9.43;;
76268;SDS011;65088;52.352;4.846;2023-02-11T08:47:12;18.55;;;8.68;;
76268;SDS011;65088;52.352;4.846;2023-02-11T08:49:41;21.52;;;9.38;;
76268;SDS011;65088;52.352;4.846;2023-02-11T08:52:10;20.25;;;10.07;;
76268;SDS011;65088;52.352;4.846;2023-02-11T08:54:40;19.42;;;8.90;;
76268;SDS011;65088;52.352;4.846;2023-02-11T08:57:09;20.63;;;9.25;;
76268;SDS011;65088;52.352;4.846;2023-02-11T08:59:41;18.23;;;9.27;;
76268;SDS011;65088;52.352;4.846;2023-02-11T09:02:11;19.50;;;9.00;;
76268;SDS011;65088;52.352;4.846;2023-02-11T09:04:41;19.85;;;8.50;;
76268;SDS011;65088;52.352;4.846;2023-02-11T09:07:10;20.48;;;9.13;;
76268;SDS011;65088;52.352;4.846;2023-02-11T09:09:40;19.48;;;9.05;;
76268;SDS011;65088;52.352;4.846;2023-02-11T09:12:09;20.77;;;8.98;;
76268;SDS011;65088;52.352;4.846;2023-02-11T09:14:41;18.25;;;8.73;;
76268;SDS011;65088;52.352;4.846;2023-02-11T09:17:10;16.23;;;8.02;;
76268;SDS011;65088;52.352;4.846;2023-02-11T09:19:40;18.85;;;8.38;;
76268;SDS011;65088;52.352;4.846;2023-02-11T09:22:09;17.75;;;8.27;;
76268;SDS011;65088;52.352;4.846;2023-02-11T09:24:38;16.17;;;7.88;;
76268;SDS011;65088;52.352;4.846;2023-02-11T09:27:08;20.27;;;8.45;;
76268;SDS011;65088;52.352;4.846;2023-02-11T09:29:37;17.73;;;8.20;;
76268;SDS011;65088;52.352;4.846;2023-02-11T09:32:09;19.23;;;8.32;;
76268;SDS011;65088;52.352;4.846;2023-02-11T09:34:38;20.83;;;8.80;;
76268;SDS011;65088;52.352;4.846;2023-02-11T09:37:07;19.73;;;8.07;;
76268;SDS011;65088;52.352;4.846;2023-02-11T09:39:37;16.40;;;8.57;;
76268;SDS011;65088;52.352;4.846;2023-02-11T09:42:12;23.33;;;10.30;;
76268;SDS011;65088;52.352;4.846;2023-02-11T09:44:58;15.63;;;6.90;;
76268;SDS011;65088;52.352;4.846;2023-02-11T09:47:32;21.17;;;9.00;;
76268;SDS011;65088;52.352;4.846;2023-02-11T09:52:36;12.68;;;7.45;;
76268;SDS011;65088;52.352;4.846;2023-02-11T09:55:14;13.70;;;7.13;;
76268;SDS011;65088;52.352;4.846;2023-02-11T09:57:48;15.82;;;7.32;;
76268;SDS011;65088;52.352;4.846;2023-02-11T10:00:19;18.13;;;7.28;;
76268;SDS011;65088;52.352;4.846;2023-02-11T10:02:59;14.35;;;6.88;;
76268;SDS011;65088;52.352;4.846;2023-02-11T10:05:58;14.35;;;7.32;;
76268;SDS011;65088;52.352;4.846;2023-02-11T10:08:53;16.25;;;7.20;;
76268;SDS011;65088;52.352;4.846;2023-02-11T10:11:30;15.02;;;7.07;;
76268;SDS011;65088;52.352;4.846;2023-02-11T10:14:07;15.52;;;7.00;;
76268;SDS011;65088;52.352;4.846;2023-02-11T10:16:51;14.00;;;7.18;;
76268;SDS011;65088;52.352;4.846;2023-02-11T10:19:33;12.18;;;5.95;;
76268;SDS011;65088;52.352;4.846;2023-02-11T10:22:18;10.48;;;6.30;;
76268;SDS011;65088;52.352;4.846;2023-02-11T10:24:51;15.38;;;6.75;;
76268;SDS011;65088;52.352;4.846;2023-02-11T10:27:26;10.35;;;6.03;;
76268;SDS011;65088;52.352;4.846;2023-02-11T10:29:59;13.65;;;6.75;;
76268;SDS011;65088;52.352;4.846;2023-02-11T10:32:34;12.68;;;6.40;;
76268;SDS011;65088;52.352;4.846;2023-02-11T10:35:14;11.50;;;5.93;;
76268;SDS011;65088;52.352;4.846;2023-02-11T10:37:46;14.88;;;6.68;;
76268;SDS011;65088;52.352;4.846;2023-02-11T10:40:17;16.55;;;7.95;;
76268;SDS011;65088;52.352;4.846;2023-02-11T10:42:48;16.92;;;5.32;;
76268;SDS011;65088;52.352;4.846;2023-02-11T10:45:21;11.02;;;5.82;;
76268;SDS011;65088;52.352;4.846;2023-02-11T10:47:55;10.48;;;5.85;;
76268;SDS011;65088;52.352;4.846;2023-02-11T10:50:28;13.10;;;6.00;;
76268;SDS011;65088;52.352;4.846;2023-02-11T10:53:15;12.63;;;6.03;;
76268;SDS011;65088;52.352;4.846;2023-02-11T10:55:49;11.57;;;5.93;;
76268;SDS011;65088;52.352;4.846;2023-02-11T10:58:22;10.77;;;6.15;;
76268;SDS011;65088;52.352;4.846;2023-02-11T11:00:55;10.05;;;5.65;;
76268;SDS011;65088;52.352;4.846;2023-02-11T11:03:27;12.65;;;6.15;;
76268;SDS011;65088;52.352;4.846;2023-02-11T11:06:05;10.23;;;5.80;;
76268;SDS011;65088;52.352;4.846;2023-02-11T11:08:38;11.73;;;6.28;;
76268;SDS011;65088;52.352;4.846;2023-02-11T11:11:10;13.18;;;6.40;;
76268;SDS011;65088;52.352;4.846;2023-02-11T11:13:41;11.73;;;6.47;;
76268;SDS011;65088;52.352;4.846;2023-02-11T11:16:23;15.52;;;5.90;;
76268;SDS011;65088;52.352;4.846;2023-02-11T11:19:14;9.07;;;5.35;;
76268;SDS011;65088;52.352;4.846;2023-02-11T11:21:51;11.73;;;5.57;;
76268;SDS011;65088;52.352;4.846;2023-02-11T11:24:22;13.60;;;6.75;;
76268;SDS011;65088;52.352;4.846;2023-02-11T11:26:57;14.02;;;6.28;;
76268;SDS011;65088;52.352;4.846;2023-02-11T11:29:32;13.23;;;6.03;;
76268;SDS011;65088;52.352;4.846;2023-02-11T11:32:04;11.57;;;5.95;;
76268;SDS011;65088;52.352;4.846;2023-02-11T11:34:40;13.32;;;6.07;;
76268;SDS011;65088;52.352;4.846;2023-02-11T11:37:18;13.35;;;6.85;;
76268;SDS011;65088;52.352;4.846;2023-02-11T11:39:51;11.07;;;6.20;;
76268;SDS011;65088;52.352;4.846;2023-02-11T11:42:26;11.90;;;5.78;;
76268;SDS011;65088;52.352;4.846;2023-02-11T11:44:57;9.00;;;5.72;;
76268;SDS011;65088;52.352;4.846;2023-02-11T11:47:28;12.93;;;5.82;;
76268;SDS011;65088;52.352;4.846;2023-02-11T11:50:11;9.80;;;5.97;;
76268;SDS011;65088;52.352;4.846;2023-02-11T11:52:55;12.90;;;6.80;;
76268;SDS011;65088;52.352;4.846;2023-02-11T11:55:30;11.73;;;6.32;;
76268;SDS011;65088;52.352;4.846;2023-02-11T11:58:03;10.50;;;5.97;;
76268;SDS011;65088;52.352;4.846;2023-02-11T12:00:34;11.50;;;6.25;;
76268;SDS011;65088;52.352;4.846;2023-02-11T12:03:23;14.02;;;5.90;;
76268;SDS011;65088;52.352;4.846;2023-02-11T12:06:06;12.98;;;6.07;;
76268;SDS011;65088;52.352;4.846;2023-02-11T12:11:33;10.57;;;5.40;;
76268;SDS011;65088;52.352;4.846;2023-02-11T12:14:11;9.23;;;5.20;;
76268;SDS011;65088;52.352;4.846;2023-02-11T12:16:51;10.00;;;5.45;;
76268;SDS011;65088;52.352;4.846;2023-02-11T12:22:28;12.35;;;5.03;;
76268;SDS011;65088;52.352;4.846;2023-02-11T12:25:18;11.80;;;5.45;;
76268;SDS011;65088;52.352;4.846;2023-02-11T12:27:57;10.95;;;5.65;;
76268;SDS011;65088;52.352;4.846;2023-02-11T12:33:38;8.20;;;4.78;;
76268;SDS011;65088;52.352;4.846;2023-02-11T12:36:23;11.27;;;5.28;;
76268;SDS011;65088;52.352;4.846;2023-02-11T12:39:07;9.13;;;4.90;;
76268;SDS011;65088;52.352;4.846;2023-02-11T12:41:51;11.85;;;4.72;;
76268;SDS011;65088;52.352;4.846;2023-02-11T12:44:48;11.93;;;5.32;;
76268;SDS011;65088;52.352;4.846;2023-02-11T12:47:32;9.43;;;5.28;;
76268;SDS011;65088;52.352;4.846;2023-02-11T12:50:12;7.95;;;4.50;;
76268;SDS011;65088;52.352;4.846;2023-02-11T12:52:54;15.73;;;5.50;;
76268;SDS011;65088;52.352;4.846;2023-02-11T12:55:44;9.73;;;4.72;;
76268;SDS011;65088;52.352;4.846;2023-02-11T12:58:20;12.23;;;5.80;;
76268;SDS011;65088;52.352;4.846;2023-02-11T13:00:54;8.45;;;5.22;;
76268;SDS011;65088;52.352;4.846;2023-02-11T13:03:27;8.38;;;4.80;;
76268;SDS011;65088;52.352;4.846;2023-02-11T13:06:02;9.63;;;4.97;;
76268;SDS011;65088;52.352;4.846;2023-02-11T13:08:36;9.40;;;5.53;;
76268;SDS011;65088;52.352;4.846;2023-02-11T13:11:08;10.05;;;5.03;;
76268;SDS011;65088;52.352;4.846;2023-02-11T13:13:48;10.02;;;4.93;;
76268;SDS011;65088;52.352;4.846;2023-02-11T13:16:25;11.82;;;5.70;;
76268;SDS011;65088;52.352;4.846;2023-02-11T13:19:02;7.72;;;4.35;;
76268;SDS011;65088;52.352;4.846;2023-02-11T13:21:46;12.32;;;4.55;;
76268;SDS011;65088;52.352;4.846;2023-02-11T13:24:33;10.77;;;4.88;;
76268;SDS011;65088;52.352;4.846;2023-02-11T13:27:10;8.38;;;4.22;;
76268;SDS011;65088;52.352;4.846;2023-02-11T13:30:12;11.98;;;4.20;;
76268;SDS011;65088;52.352;4.846;2023-02-11T13:35:44;9.60;;;4.55;;
76268;SDS011;65088;52.352;4.846;2023-02-11T13:38:30;7.28;;;3.85;;
76268;SDS011;65088;52.352;4.846;2023-02-11T13:41:01;12.82;;;4.13;;
76268;SDS011;65088;52.352;4.846;2023-02-11T13:43:33;12.05;;;4.32;;
76268;SDS011;65088;52.352;4.846;2023-02-11T13:46:07;9.35;;;3.88;;
76268;SDS011;65088;52.352;4.846;2023-02-11T13:48:44;9.25;;;4.80;;
76268;SDS011;65088;52.352;4.846;2023-02-11T13:51:17;6.68;;;3.60;;
76268;SDS011;65088;52.352;4.846;2023-02-11T13:54:02;13.48;;;4.43;;
76268;SDS011;65088;52.352;4.846;2023-02-11T13:56:33;9.15;;;4.20;;
76268;SDS011;65088;52.352;4.846;2023-02-11T13:59:05;6.75;;;3.60;;
76268;SDS011;65088;52.352;4.846;2023-02-11T14:02:21;6.78;;;4.15;;
76268;SDS011;65088;52.352;4.846;2023-02-11T14:08:10;8.10;;;4.38;;
76268;SDS011;65088;52.352;4.846;2023-02-11T14:10:55;7.72;;;3.75;;
76268;SDS011;65088;52.352;4.846;2023-02-11T14:13:26;11.25;;;4.32;;
76268;SDS011;65088;52.352;4.846;2023-02-11T14:16:06;8.43;;;3.72;;
76268;SDS011;65088;52.352;4.846;2023-02-11T14:18:56;9.07;;;4.22;;
76268;SDS011;65088;52.352;4.846;2023-02-11T14:21:32;8.18;;;4.30;;
76268;SDS011;65088;52.352;4.846;2023-02-11T14:27:03;9.93;;;4.60;;
76268;SDS011;65088;52.352;4.846;2023-02-11T14:29:38;10.48;;;4.18;;
76268;SDS011;65088;52.352;4.846;2023-02-11T14:32:27;7.78;;;3.78;;
76268;SDS011;65088;52.352;4.846;2023-02-11T14:35:09;11.13;;;4.25;;
76268;SDS011;65088;52.352;4.846;2023-02-11T14:37:46;7.85;;;3.90;;
76268;SDS011;65088;52.352;4.846;2023-02-11T14:40:25;8.35;;;4.07;;
76268;SDS011;65088;52.352;4.846;2023-02-11T14:43:00;11.85;;;5.18;;
76268;SDS011;65088;52.352;4.846;2023-02-11T14:45:38;9.30;;;5.00;;
76268;SDS011;65088;52.352;4.846;2023-02-11T14:48:12;11.18;;;4.72;;
76268;SDS011;65088;52.352;4.846;2023-02-11T14:50:47;7.80;;;4.32;;
76268;SDS011;65088;52.352;4.846;2023-02-11T14:53:19;6.63;;;3.70;;
76268;SDS011;65088;52.352;4.846;2023-02-11T14:55:51;7.50;;;3.92;;
76268;SDS011;65088;52.352;4.846;2023-02-11T14:58:24;7.57;;;3.50;;
76268;SDS011;65088;52.352;4.846;2023-02-11T15:00:55;10.90;;;4.20;;
76268;SDS011;65088;52.352;4.846;2023-02-11T15:03:28;10.55;;;4.35;;
76268;SDS011;65088;52.352;4.846;2023-02-11T15:06:02;9.98;;;3.67;;
76268;SDS011;65088;52.352;4.846;2023-02-11T15:08:35;7.07;;;3.85;;
76268;SDS011;65088;52.352;4.846;2023-02-11T15:11:07;8.25;;;4.20;;
76268;SDS011;65088;52.352;4.846;2023-02-11T15:13:40;8.20;;;4.13;;
76268;SDS011;65088;52.352;4.846;2023-02-11T15:16:15;10.18;;;4.38;;
76268;SDS011;65088;52.352;4.846;2023-02-11T15:18:47;8.13;;;4.43;;
76268;SDS011;65088;52.352;4.846;2023-02-11T15:21:24;6.10;;;3.42;;
76268;SDS011;65088;52.352;4.846;2023-02-11T15:23:57;11.75;;;4.53;;
76268;SDS011;65088;52.352;4.846;2023-02-11T15:26:28;6.53;;;3.67;;
76268;SDS011;65088;52.352;4.846;2023-02-11T15:28:58;9.07;;;4.28;;
76268;SDS011;65088;52.352;4.846;2023-02-11T15:31:27;8.60;;;4.18;;
76268;SDS011;65088;52.352;4.846;2023-02-11T15:33:57;7.63;;;3.70;;
76268;SDS011;65088;52.352;4.846;2023-02-11T15:36:46;8.27;;;4.25;;
76268;SDS011;65088;52.352;4.846;2023-02-11T15:39:16;10.32;;;4.03;;
76268;SDS011;65088;52.352;4.846;2023-02-11T15:45:09;9.48;;;3.72;;